Řízení letového provozu České republiky  
Aktualizace dat:  20.01.2019 10:47:06 UTC English version
   METEO Zobrazení stránky:  20.01.2019 10:48:07 UTC  
vysvětlivky
METAR EDDB 201020Z 07003KT CAVOK M02/M04 Q1019 NOSIG=
METAR EDDC 201020Z 10004KT 060V140 CAVOK M01/M06 Q1017 NOSIG=
METAR EDDE 201020Z VRB01KT CAVOK M04/M08 Q1016 NOSIG=
METAR EDDF 201020Z 07009KT CAVOK M02/M06 Q1016 NOSIG=
METAR EDDM 201020Z 05003KT 020V090 6000 FEW006 M05/M06 Q1014 NOSIG=
METAR EDDN 201020Z 11007KT CAVOK M03/M07 Q1015 NOSIG=
METAR EDDP 201020Z 14005KT CAVOK M02/M06 Q1018 NOSIG=
METAR EDDT 201020Z 07003KT 020V110 CAVOK M01/M04 Q1019 NOSIG=
METAR EDQM 201020Z 13005KT 090V170 9999 OVC008 M06/M07 Q1014=
METAR EPBY 201030Z 28007KT 260V320 9999 OVC016 M02/M05 Q1019 =
METAR EPGD 201030Z 26012KT 9999 BKN012 M01/M04 Q1016 =
METAR EPKK 201030Z VRB02KT 4600 BR BKN060 M03/M06 Q1016 =
METAR EPKT 201030Z 35002KT 6000 NSC M03/M06 Q1016 =
METAR EPLL 201030Z VRB01KT 4300 BR NSC M02/M05 Q1017 =
METAR EPPO 201030Z VRB01KT 3000 BR NSC M01/M04 Q1019 =
METAR EPRZ 201030Z VRB01KT 7000 FEW005 M04/M06 Q1017 =
METAR EPWA 201030Z 25003KT 8000 NSC M02/M05 Q1018 NOSIG=
METAR EPWR 201030Z VRB01KT 4500 BR NSC M03/M04 Q1018 =
METAR LHBP 201030Z 02004KT 340V080 4400 -SN BR FEW008 SCT016 OVC026 M01/M01 Q1016 R13L/490194 R13R/650394 TEMPO 5000 BR=
METAR LHSM 201015Z 06002KT 4600 BR OVC005 01/00 Q1017 BECMG 6000 NSW=
METAR LKBC 201030Z AUTO 13003KT 080V160 9999 FEW013 OVC022 M02/M05 Q1013=
METAR LKCV 201000Z VRB01KT 9999 BKN027 M02/M05 Q1016 NOSIG RMK BLU BLU=
METAR LKKB 201000Z 36004KT 9000 OVC028 M03/M06 Q1016 NOSIG RMK BLU BLU=
METAR LKKU NIL
METAR LKKV 201030Z 10008KT 9999 SCT009 OVC011 M06/M07 Q1014 R29/720295 RMK REG QNH 1010=
METAR LKLN 201030Z AUTO 00000KT 9999 OVC021 M02/M05 Q1016=
METAR LKMT 201030Z 05003KT 2000 BR NSC M03/M05 Q1017 R04/31//95 TEMPO 3000 BR RMK REG QNH 1010=
METAR LKNA 201000Z 13004KT 090V160 9999 OVC019 M02/M06 Q1015 NOSIG RMK WHT WHT=
METAR LKPD 201000Z 06003KT 020V090 9999 BKN035 M01/M06 Q1017 NOSIG RMK BLU BLU=
METAR LKPR 201030Z 34004KT 300V360 8000 OVC026 M04/M06 Q1016 NOSIG RMK REG QNH 1010=
METAR LKTB 201030Z 08006KT 9999 BKN034 M00/M05 Q1016 NOSIG RMK REG QNH 1010=
METAR LKVO NIL
METAR LOWI 201020Z 27004KT CAVOK M05/M09 Q1015 NOSIG=
METAR LOWL 201020Z 11004KT 060V150 9999 BKN013 M04/M07 Q1016 NOSIG=
METAR LOWS 201020Z 18003KT 130V230 CAVOK M01/M08 Q1014 NOSIG=
METAR LOWW 201020Z VRB02KT 9999 FEW012 BKN016 M00/M04 Q1016 R88/19//95 NOSIG=
METAR LZIB 201030Z 07004KT 9999 FEW015 BKN018 00/M03 Q1016 NOSIG=
METAR LZKZ 201030Z 11003KT 4500 -SN BKN030 OVC040 M03/M05 Q1015 NOSIG=
METAR LZMC 201000Z 29002KT 9999 SCT020 BKN033 BKN048 00/M05 Q1017=
METAR LZPP 201030Z 03003KT CAVOK M00/M05 Q1016=
METAR LZSL 201030Z 00000KT 9999 OVC059 M01/M07 Q1015=
METAR LZTT 201030Z VRB01KT 9999 BKN053 M04/M09 Q1013 NOSIG=
METAR LZZI 201030Z 07006KT CAVOK M02/M06 Q1016=